Leviticus — WDC2712 — position and weather

sailwx.info

Track history (hours):
 
Tides and Currents Weather Stations Pressure Air Temp Water Temp Dewpoint Dewpoint Depression Visibility Wind Speed Wind Dir Waves Ship Positions

Leviticus

Owner: Kirby Inland Marine, LP, Houston, TX. More information available from US FCC via Universal Licensing System and Coast Guard Vessel Documentation Center.

Last reported at 2016-Jan-28 04:05 UTC. Time now 2016-Feb-08 16:58 UTC.
Position N 32°35' W 091°08'.
Warning: this ship's position is 11 days out of date.

Length 12 m.

Type: Other ship. MMSI: 366996690.

Date/timePositionNaut miles runAvg speedWind from/ knotsBaromVisibWave heightAir tempDewpointWater temp
2016-Jan-28 04:05N 32°35' W 091°08'6 3.8
2016-Jan-28 02:30N 32°29' W 091°07'3 3.6
2016-Jan-28 01:33N 32°27' W 091°04'4 4.1
2016-Jan-28 00:33N 32°25' W 090°60'4 3.5
2016-Jan-27 23:33N 32°21' W 090°59'4 4.1
2016-Jan-27 22:34N 32°20' W 090°54'2 1.9
2016-Jan-27 21:33N 32°18' W 090°55'0 0.0
2016-Jan-27 20:33N 32°18' W 090°55'0 0.0
2016-Jan-27 19:33N 32°18' W 090°55'0 0.0
2016-Jan-27 18:33N 32°18' W 090°55'0 0.0
2016-Jan-27 17:33N 32°18' W 090°55'3 2.8
2016-Jan-27 16:33N 32°16' W 090°58'5 4.5
2016-Jan-27 15:33N 32°12' W 090°59'4 3.8
2016-Jan-27 14:33N 32°08' W 091°00'4 4.4
2016-Jan-27 13:33N 32°08' W 091°05'  
2016-Jan-21 16:27N 32°06' W 091°06'5 5.7
2016-Jan-21 15:33N 32°08' W 091°00'1 1.2
2016-Jan-21 14:32N 32°10' W 091°00'0 0.0
2016-Jan-21 13:33N 32°10' W 091°00'0 0.0
2016-Jan-21 12:27N 32°10' W 091°00'0 0.0
2016-Jan-21 10:33N 32°10' W 091°00'0 0.0
2016-Jan-21 09:33N 32°10' W 091°00'0 0.0
2016-Jan-21 08:25N 32°10' W 091°00'0 0.0
2016-Jan-21 05:33N 32°10' W 091°00'6 5.8
2016-Jan-21 04:33N 32°15' W 090°58'4 4.2
2016-Jan-21 03:33N 32°18' W 090°55'0 0.0
2016-Jan-21 02:34N 32°18' W 090°55'0 0.0
2016-Jan-21 01:33N 32°18' W 090°55'0 0.0
2016-Jan-21 00:33N 32°18' W 090°55'0 0.0
2016-Jan-20 23:33N 32°18' W 090°55'0 0.5
2016-Jan-20 22:33N 32°18' W 090°56'1 1.2
2016-Jan-20 21:33N 32°19' W 090°54'7 6.6
2016-Jan-20 20:33N 32°24' W 090°60'11 9.5
2016-Jan-20 19:25N 32°33' W 091°06'  
Track history (hours):
 
Tides and Currents Weather Stations Pressure Air Temp Water Temp Dewpoint Dewpoint Depression Visibility Wind Speed Wind Dir Waves Ship Positions

Leviticus

Owner: Kirby Inland Marine, LP, Houston, TX. More information available from US FCC via Universal Licensing System and Coast Guard Vessel Documentation Center.

Last reported at 2016-Jan-28 04:05 UTC. Time now 2016-Feb-08 16:58 UTC.
Position N 32°35' W 091°08'.
Warning: this ship's position is 11 days out of date.

Length 12 m.

Type: Other ship. MMSI: 366996690.

Date/timePositionNaut miles runAvg speedWind from/ knotsBaromVisibWave heightAir tempDewpointWater temp
2016-Jan-28 04:05N 32°35' W 091°08'6 3.8
2016-Jan-28 02:30N 32°29' W 091°07'3 3.6
2016-Jan-28 01:33N 32°27' W 091°04'4 4.1
2016-Jan-28 00:33N 32°25' W 090°60'4 3.5
2016-Jan-27 23:33N 32°21' W 090°59'4 4.1
2016-Jan-27 22:34N 32°20' W 090°54'2 1.9
2016-Jan-27 21:33N 32°18' W 090°55'0 0.0
2016-Jan-27 20:33N 32°18' W 090°55'0 0.0
2016-Jan-27 19:33N 32°18' W 090°55'0 0.0
2016-Jan-27 18:33N 32°18' W 090°55'0 0.0
2016-Jan-27 17:33N 32°18' W 090°55'3 2.8
2016-Jan-27 16:33N 32°16' W 090°58'5 4.5
2016-Jan-27 15:33N 32°12' W 090°59'4 3.8
2016-Jan-27 14:33N 32°08' W 091°00'4 4.4
2016-Jan-27 13:33N 32°08' W 091°05'  
2016-Jan-21 16:27N 32°06' W 091°06'5 5.7
2016-Jan-21 15:33N 32°08' W 091°00'1 1.2
2016-Jan-21 14:32N 32°10' W 091°00'0 0.0
2016-Jan-21 13:33N 32°10' W 091°00'0 0.0
2016-Jan-21 12:27N 32°10' W 091°00'0 0.0
2016-Jan-21 10:33N 32°10' W 091°00'0 0.0
2016-Jan-21 09:33N 32°10' W 091°00'0 0.0
2016-Jan-21 08:25N 32°10' W 091°00'0 0.0
2016-Jan-21 05:33N 32°10' W 091°00'6 5.8
2016-Jan-21 04:33N 32°15' W 090°58'4 4.2
2016-Jan-21 03:33N 32°18' W 090°55'0 0.0
2016-Jan-21 02:34N 32°18' W 090°55'0 0.0
2016-Jan-21 01:33N 32°18' W 090°55'0 0.0
2016-Jan-21 00:33N 32°18' W 090°55'0 0.0
2016-Jan-20 23:33N 32°18' W 090°55'0 0.5
2016-Jan-20 22:33N 32°18' W 090°56'1 1.2
2016-Jan-20 21:33N 32°19' W 090°54'7 6.6
2016-Jan-20 20:33N 32°24' W 090°60'11 9.5
2016-Jan-20 19:25N 32°33' W 091°06'  

Dump ship's entire track history